createdAt,value
2023-03-05T00:01:32.134Z,-3.25
2023-03-05T00:03:59.781Z,-3.25
2023-03-05T00:06:29.559Z,-3.41
2023-03-05T00:08:58.757Z,-3.46
2023-03-05T00:11:30.405Z,-3.49
2023-03-05T00:13:58.358Z,-3.60
2023-03-05T00:16:27.150Z,-3.64
2023-03-05T00:18:55.945Z,-3.67
2023-03-05T00:21:23.008Z,-3.63
2023-03-05T00:23:53.901Z,-3.66
2023-03-05T00:26:23.725Z,-3.69
2023-03-05T00:28:52.729Z,-3.63
2023-03-05T00:31:22.389Z,-3.57
2023-03-05T00:33:58.332Z,-3.57
2023-03-05T00:36:26.090Z,-3.60
2023-03-05T00:38:53.875Z,-3.65
2023-03-05T00:41:21.915Z,-3.63
2023-03-05T00:43:49.457Z,-3.67
2023-03-05T00:46:17.471Z,-3.63
2023-03-05T00:48:44.751Z,-3.57
2023-03-05T00:51:12.358Z,-3.63
2023-03-05T00:53:39.721Z,-3.65
2023-03-05T00:56:07.705Z,-3.61
2023-03-05T00:58:35.072Z,-3.62
2023-03-05T01:01:03.116Z,-3.61
2023-03-05T01:03:31.884Z,-3.63
2023-03-05T01:05:59.556Z,-3.63
2023-03-05T01:08:28.213Z,-3.62
2023-03-05T01:10:55.654Z,-3.69
2023-03-05T01:13:23.333Z,-3.68
2023-03-05T01:15:51.215Z,-3.69
2023-03-05T01:18:20.074Z,-3.74
2023-03-05T01:20:48.242Z,-3.69
2023-03-05T01:23:16.563Z,-3.69
2023-03-05T01:25:44.060Z,-3.56
2023-03-05T01:28:12.084Z,-3.43
2023-03-05T01:30:39.408Z,-3.33
2023-03-05T01:33:06.535Z,-3.28
2023-03-05T01:35:34.138Z,-3.24
2023-03-05T01:38:01.572Z,-3.16
2023-03-05T01:40:30.324Z,-3.06
2023-03-05T01:43:11.108Z,-2.99
2023-03-05T01:45:40.530Z,-2.95
2023-03-05T01:48:07.890Z,-2.90
2023-03-05T01:50:35.330Z,-2.93
2023-03-05T01:53:06.860Z,-2.88
2023-03-05T01:55:37.149Z,-2.81
2023-03-05T01:58:09.120Z,-2.75
2023-03-05T02:00:43.839Z,-2.72
2023-03-05T02:03:12.722Z,-2.73
2023-03-05T02:05:41.490Z,-2.71
2023-03-05T02:08:11.340Z,-2.72
2023-03-05T02:10:48.174Z,-2.66
2023-03-05T02:13:22.977Z,-2.67
2023-03-05T02:15:51.088Z,-2.70
2023-03-05T02:18:20.141Z,-2.75
2023-03-05T02:20:56.818Z,-2.69
2023-03-05T02:23:30.435Z,-2.65
2023-03-05T02:25:57.971Z,-2.71
2023-03-05T02:28:32.624Z,-2.69
2023-03-05T02:31:00.026Z,-2.67
2023-03-05T02:33:27.827Z,-2.64
2023-03-05T02:35:55.444Z,-2.72
2023-03-05T02:38:22.796Z,-2.79
2023-03-05T02:40:49.895Z,-2.71
2023-03-05T02:43:18.803Z,-2.72
2023-03-05T02:45:46.293Z,-2.64
2023-03-05T02:48:13.469Z,-2.70
2023-03-05T02:50:42.149Z,-2.77
2023-03-05T02:53:09.824Z,-2.87
2023-03-05T02:55:38.192Z,-2.93
2023-03-05T02:58:05.735Z,-3.06
2023-03-05T03:00:33.689Z,-3.02
2023-03-05T03:03:00.942Z,-3.04
2023-03-05T03:05:28.198Z,-3.02
2023-03-05T03:07:55.486Z,-2.99
2023-03-05T03:10:22.668Z,-2.89
2023-03-05T03:12:49.885Z,-2.72
2023-03-05T03:15:18.850Z,-2.73
2023-03-05T03:17:46.546Z,-2.65
2023-03-05T03:20:18.805Z,-2.54
2023-03-05T03:22:46.907Z,-2.59
2023-03-05T03:25:20.441Z,-2.52
2023-03-05T03:27:48.416Z,-2.46
2023-03-05T03:30:16.215Z,-2.41
2023-03-05T03:32:44.327Z,-2.39
2023-03-05T03:35:13.472Z,-2.31
2023-03-05T03:37:41.131Z,-2.30
2023-03-05T03:40:09.224Z,-2.26
2023-03-05T03:42:36.803Z,-2.18
2023-03-05T03:45:04.702Z,-2.12
2023-03-05T03:47:31.749Z,-2.14
2023-03-05T03:50:01.668Z,-2.22
2023-03-05T03:52:29.041Z,-2.09
2023-03-05T03:55:01.746Z,-2.21
2023-03-05T03:57:29.643Z,-2.22
2023-03-05T03:59:56.964Z,-2.27
2023-03-05T04:02:24.403Z,-2.32
2023-03-05T04:04:52.216Z,-2.28
2023-03-05T04:07:19.723Z,-2.31
2023-03-05T04:09:46.958Z,-2.31
2023-03-05T04:12:18.276Z,-2.27
2023-03-05T04:14:47.229Z,-2.23
2023-03-05T04:17:15.566Z,-2.26
2023-03-05T04:19:43.203Z,-2.21
2023-03-05T04:22:15.576Z,-2.21
2023-03-05T04:24:43.856Z,-2.25
2023-03-05T04:27:12.090Z,-2.21
2023-03-05T04:29:39.686Z,-2.31
2023-03-05T04:32:07.525Z,-2.24
2023-03-05T04:34:35.624Z,-2.19
2023-03-05T04:37:02.905Z,-2.28
2023-03-05T04:39:30.409Z,-2.24
2023-03-05T04:41:57.496Z,-2.25
2023-03-05T04:44:26.368Z,-2.22
2023-03-05T04:46:53.659Z,-2.25
2023-03-05T04:49:21.289Z,-2.24
2023-03-05T04:51:48.549Z,-2.23
2023-03-05T04:54:15.864Z,-2.16
2023-03-05T04:56:43.384Z,-2.34
2023-03-05T04:59:11.631Z,-2.31
2023-03-05T05:01:39.340Z,-2.27
2023-03-05T05:04:07.452Z,-2.25
2023-03-05T05:06:34.711Z,-2.21
2023-03-05T05:09:02.233Z,-2.11
2023-03-05T05:11:29.839Z,-2.05
2023-03-05T05:13:57.384Z,-2.00
2023-03-05T05:16:25.067Z,-2.02
2023-03-05T05:18:53.570Z,-1.93
2023-03-05T05:21:21.134Z,-1.93
2023-03-05T05:23:49.108Z,-1.83
2023-03-05T05:26:16.823Z,-1.69
2023-03-05T05:28:45.134Z,-1.69
2023-03-05T05:31:15.312Z,-1.62
2023-03-05T05:33:42.660Z,-1.56
2023-03-05T05:36:14.765Z,-1.48
2023-03-05T05:38:43.289Z,-1.44
2023-03-05T05:41:13.839Z,-1.34
2023-03-05T05:43:41.517Z,-1.40
2023-03-05T05:46:13.720Z,-1.41
2023-03-05T05:48:41.651Z,-1.27
2023-03-05T05:51:12.160Z,-1.38
2023-03-05T05:53:42.167Z,-1.35
2023-03-05T05:56:10.784Z,-1.54
2023-03-05T05:58:39.314Z,-1.58
2023-03-05T06:01:28.615Z,-1.62
2023-03-05T06:03:57.216Z,-1.64
2023-03-05T06:06:25.876Z,-1.55
2023-03-05T06:08:53.676Z,-1.60
2023-03-05T06:11:21.329Z,-1.44
2023-03-05T06:13:49.597Z,-1.30
2023-03-05T06:16:21.363Z,-1.09
2023-03-05T06:18:48.556Z,-0.92
2023-03-05T06:21:18.471Z,-0.83
2023-03-05T06:23:46.951Z,-0.67
2023-03-05T06:26:16.967Z,-0.44
2023-03-05T06:28:44.793Z,-0.35
2023-03-05T06:31:15.439Z,-0.15
2023-03-05T06:33:42.984Z,0.07
2023-03-05T06:36:13.882Z,0.43
2023-03-05T06:38:41.613Z,0.60
2023-03-05T06:41:12.306Z,0.75
2023-03-05T06:43:42.023Z,0.90
2023-03-05T06:46:31.818Z,1.04
2023-03-05T06:49:00.786Z,1.15
2023-03-05T06:51:34.439Z,1.39
2023-03-05T06:54:04.849Z,1.70
2023-03-05T06:56:32.953Z,2.10
2023-03-05T06:59:00.493Z,2.50
2023-03-05T07:01:27.820Z,2.87
2023-03-05T07:03:59.134Z,2.86
2023-03-05T07:06:30.372Z,2.81
2023-03-05T07:08:59.379Z,2.83
2023-03-05T07:11:26.641Z,2.66
2023-03-05T07:13:54.729Z,2.54
2023-03-05T07:16:24.867Z,2.62
2023-03-05T07:18:53.136Z,2.91
2023-03-05T07:21:26.050Z,3.15
2023-03-05T07:23:55.418Z,3.28
2023-03-05T07:26:23.483Z,3.02
2023-03-05T07:28:50.965Z,3.08
2023-03-05T07:31:21.688Z,3.08
2023-03-05T07:33:50.736Z,2.94
2023-03-05T07:36:19.117Z,3.03
2023-03-05T07:38:47.319Z,3.06
2023-03-05T07:41:21.824Z,3.06
2023-03-05T07:43:51.127Z,2.99
2023-03-05T07:46:21.249Z,2.95
2023-03-05T07:48:48.957Z,2.79
2023-03-05T07:51:19.072Z,2.75
2023-03-05T07:53:48.239Z,2.87
2023-03-05T07:56:35.721Z,2.84
2023-03-05T07:59:06.985Z,2.77
2023-03-05T08:01:35.171Z,2.73
2023-03-05T08:04:04.110Z,2.63
2023-03-05T08:06:32.281Z,2.60
2023-03-05T08:09:00.270Z,2.70
2023-03-05T08:11:29.005Z,2.87
2023-03-05T08:13:59.582Z,2.94
2023-03-05T08:16:28.145Z,3.25
2023-03-05T08:19:00.720Z,4.01
2023-03-05T08:21:31.408Z,4.66
2023-03-05T08:24:09.631Z,5.04
2023-03-05T08:26:39.042Z,5.38
2023-03-05T08:29:08.148Z,5.72
2023-03-05T08:31:36.239Z,5.96
2023-03-05T08:34:04.855Z,6.21
2023-03-05T08:36:32.879Z,6.68
2023-03-05T08:39:01.354Z,7.25
2023-03-05T08:41:28.682Z,7.53
2023-03-05T08:43:55.697Z,7.83
2023-03-05T08:46:23.457Z,8.26
2023-03-05T08:48:51.079Z,8.81
2023-03-05T08:51:20.847Z,9.23
2023-03-05T08:53:48.320Z,9.34
2023-03-05T08:56:16.037Z,9.57
2023-03-05T08:58:44.071Z,9.95
2023-03-05T09:01:11.859Z,10.42
2023-03-05T09:03:40.401Z,10.77
2023-03-05T09:06:10.722Z,10.57
2023-03-05T09:08:39.299Z,10.56
2023-03-05T09:11:12.389Z,10.83
2023-03-05T09:13:40.156Z,10.77
2023-03-05T09:16:12.394Z,10.73
2023-03-05T09:18:41.053Z,10.62
2023-03-05T09:21:11.600Z,10.64
2023-03-05T09:23:39.273Z,10.61
2023-03-05T09:26:07.719Z,10.87
2023-03-05T09:28:37.129Z,10.99
2023-03-05T09:31:05.838Z,11.20
2023-03-05T09:33:34.079Z,11.36
2023-03-05T09:36:02.930Z,11.68
2023-03-05T09:38:30.907Z,11.90
2023-03-05T09:41:05.814Z,11.94
2023-03-05T09:43:53.148Z,12.09
2023-03-05T09:46:32.585Z,12.34
2023-03-05T09:49:16.275Z,12.64
2023-03-05T09:51:46.934Z,12.30
2023-03-05T09:54:21.851Z,11.91
2023-03-05T09:57:00.235Z,12.14
2023-03-05T09:59:30.461Z,12.22
2023-03-05T10:02:06.006Z,11.27
2023-03-05T10:04:48.173Z,10.61
2023-03-05T10:07:27.955Z,10.31
2023-03-05T10:10:00.320Z,10.01
2023-03-05T10:12:34.776Z,10.45
2023-03-05T10:15:03.818Z,11.13
2023-03-05T10:18:03.605Z,11.25
2023-03-05T10:20:55.739Z,11.13
2023-03-05T10:23:26.435Z,11.72
2023-03-05T10:26:06.701Z,12.06
2023-03-05T10:28:43.135Z,12.22
2023-03-05T10:31:44.421Z,12.06
2023-03-05T10:34:34.155Z,11.14
2023-03-05T10:37:09.344Z,10.64
2023-03-05T10:39:47.709Z,10.26
2023-03-05T10:42:31.439Z,9.66
2023-03-05T10:45:01.760Z,9.14
2023-03-05T10:48:21.477Z,8.76
2023-03-05T10:50:54.067Z,8.23
2023-03-05T10:53:27.108Z,7.94
2023-03-05T10:55:56.322Z,7.98
2023-03-05T10:58:25.729Z,7.82
2023-03-05T11:01:05.595Z,7.57
2023-03-05T11:03:57.629Z,6.99
2023-03-05T11:06:42.938Z,6.96
2023-03-05T11:09:18.840Z,7.46
2023-03-05T11:12:10.310Z,7.29
2023-03-05T11:14:59.577Z,7.10
2023-03-05T11:17:38.039Z,6.65
2023-03-05T11:20:29.335Z,6.82
2023-03-05T11:23:13.430Z,7.41
2023-03-05T11:26:22.353Z,8.24
2023-03-05T11:28:52.334Z,8.81
2023-03-05T11:31:19.431Z,9.16
2023-03-05T11:34:18.796Z,9.56
2023-03-05T11:36:56.008Z,9.87
2023-03-05T11:39:27.482Z,9.91
2023-03-05T11:41:59.730Z,9.96
2023-03-05T11:44:44.661Z,9.32
2023-03-05T11:47:29.079Z,9.61
2023-03-05T11:50:03.441Z,9.49
2023-03-05T11:52:46.476Z,9.13
2023-03-05T11:55:22.668Z,9.35
2023-03-05T11:58:01.364Z,9.21
2023-03-05T12:00:31.900Z,9.22
2023-03-05T12:03:02.979Z,9.29
2023-03-05T12:05:30.618Z,9.24
2023-03-05T12:08:01.899Z,9.10
2023-03-05T12:10:29.392Z,9.13
2023-03-05T12:13:35.799Z,9.24
2023-03-05T12:16:16.125Z,9.39
2023-03-05T12:18:46.404Z,9.57
2023-03-05T12:21:37.219Z,9.63
2023-03-05T12:24:26.674Z,9.55
2023-03-05T12:27:07.012Z,9.19
2023-03-05T12:29:50.772Z,9.46
2023-03-05T12:32:29.000Z,9.53
2023-03-05T12:34:56.772Z,9.13
2023-03-05T12:37:23.948Z,8.99
2023-03-05T12:39:58.308Z,9.05
2023-03-05T12:42:28.518Z,9.09
2023-03-05T12:45:14.710Z,8.73
2023-03-05T12:47:46.288Z,8.42
2023-03-05T12:50:28.638Z,7.90
2023-03-05T12:53:04.969Z,7.51
2023-03-05T12:55:40.110Z,6.71
2023-03-05T12:58:25.568Z,6.34
2023-03-05T13:01:17.238Z,5.87
2023-03-05T13:03:53.427Z,5.48
2023-03-05T13:06:34.306Z,5.25
2023-03-05T13:09:04.650Z,5.06
2023-03-05T13:11:34.588Z,4.99
2023-03-05T13:14:03.127Z,4.92
2023-03-05T13:16:38.247Z,4.91
2023-03-05T13:19:16.521Z,4.78
2023-03-05T13:21:43.742Z,4.64
2023-03-05T13:24:18.845Z,4.37
2023-03-05T13:26:46.580Z,4.32
2023-03-05T13:29:22.265Z,4.20
2023-03-05T13:32:03.508Z,4.18
2023-03-05T13:34:46.231Z,4.03
2023-03-05T13:37:18.434Z,3.91
2023-03-05T13:39:55.620Z,3.97
2023-03-05T13:42:35.107Z,4.00
2023-03-05T13:45:20.468Z,3.88
2023-03-05T13:47:58.192Z,4.00
2023-03-05T13:50:36.926Z,3.90
2023-03-05T13:53:30.198Z,3.93
2023-03-05T13:56:05.703Z,3.90
2023-03-05T13:58:49.673Z,3.63
2023-03-05T14:01:44.173Z,3.59
2023-03-05T14:04:14.318Z,3.54
2023-03-05T14:06:49.264Z,3.41
2023-03-05T14:09:23.364Z,3.52
2023-03-05T14:12:01.209Z,3.46
2023-03-05T14:14:30.026Z,3.32
2023-03-05T14:17:32.934Z,3.38
2023-03-05T14:20:20.132Z,3.46
2023-03-05T14:22:51.459Z,3.49
2023-03-05T14:25:38.284Z,3.41
2023-03-05T14:28:17.263Z,3.39
2023-03-05T14:30:53.750Z,3.22
2023-03-05T14:33:27.511Z,3.18
2023-03-05T14:35:56.058Z,3.18
2023-03-05T14:38:28.090Z,3.23
2023-03-05T14:40:55.485Z,3.21
2023-03-05T14:43:22.493Z,2.92
2023-03-05T14:45:49.978Z,3.04
2023-03-05T14:48:19.330Z,3.03
2023-03-05T14:50:53.670Z,3.08
2023-03-05T14:53:25.823Z,3.04
2023-03-05T14:55:58.056Z,3.05
2023-03-05T14:58:27.952Z,3.01
2023-03-05T15:00:55.939Z,2.99
2023-03-05T15:03:23.716Z,2.86
2023-03-05T15:05:54.293Z,2.83
2023-03-05T15:08:25.553Z,2.78
2023-03-05T15:10:53.079Z,2.68
2023-03-05T15:13:21.109Z,2.51
2023-03-05T15:15:50.537Z,2.50
2023-03-05T15:18:20.860Z,2.41
2023-03-05T15:20:49.295Z,2.37
2023-03-05T15:23:19.415Z,2.30
2023-03-05T15:25:46.898Z,2.22
2023-03-05T15:28:14.458Z,2.16
2023-03-05T15:30:45.736Z,2.12
2023-03-05T15:33:15.534Z,2.02
2023-03-05T15:35:43.701Z,1.96
2023-03-05T15:38:13.367Z,1.92
2023-03-05T15:40:41.015Z,1.85
2023-03-05T15:43:08.108Z,1.81
2023-03-05T15:45:35.292Z,1.75
2023-03-05T15:48:02.963Z,1.70
2023-03-05T15:50:30.836Z,1.64
2023-03-05T15:52:58.957Z,1.59
2023-03-05T15:55:26.338Z,1.58
2023-03-05T15:57:54.102Z,1.53
2023-03-05T16:00:26.209Z,1.48
2023-03-05T16:02:53.313Z,1.41
2023-03-05T16:05:20.471Z,1.38
2023-03-05T16:07:51.700Z,1.35
2023-03-05T16:10:25.544Z,1.32
2023-03-05T16:12:57.940Z,1.28
2023-03-05T16:15:25.626Z,1.20
2023-03-05T16:17:56.358Z,1.10
2023-03-05T16:20:24.383Z,1.08
2023-03-05T16:22:51.395Z,1.04
2023-03-05T16:25:18.836Z,1.02
2023-03-05T16:27:46.270Z,0.91
2023-03-05T16:30:15.505Z,0.86
2023-03-05T16:32:43.236Z,0.83
2023-03-05T16:35:12.575Z,0.76
2023-03-05T16:37:41.422Z,0.71
2023-03-05T16:40:10.606Z,0.66
2023-03-05T16:42:37.806Z,0.63
2023-03-05T16:45:06.427Z,0.56
2023-03-05T16:47:33.851Z,0.46
2023-03-05T16:50:01.123Z,0.32
2023-03-05T16:52:29.167Z,0.23
2023-03-05T16:54:56.424Z,0.15
2023-03-05T16:57:26.493Z,0.05
2023-03-05T16:59:54.302Z,-0.06
2023-03-05T17:02:21.758Z,-0.18
2023-03-05T17:04:50.514Z,-0.35
2023-03-05T17:07:18.668Z,-0.53
2023-03-05T17:09:48.248Z,-0.76
2023-03-05T17:12:15.641Z,-0.99
2023-03-05T17:14:43.050Z,-1.15
2023-03-05T17:17:10.883Z,-1.27
2023-03-05T17:19:38.346Z,-1.43
2023-03-05T17:22:05.863Z,-1.52
2023-03-05T17:24:33.474Z,-1.58
2023-03-05T17:27:01.391Z,-1.63
2023-03-05T17:29:29.808Z,-1.62
2023-03-05T17:31:57.052Z,-1.71
2023-03-05T17:34:35.692Z,-1.82
2023-03-05T17:37:04.897Z,-1.89
2023-03-05T17:39:32.636Z,-1.96
2023-03-05T17:42:00.919Z,-2.10
2023-03-05T17:44:28.307Z,-2.21
2023-03-05T17:46:55.660Z,-2.21
2023-03-05T17:49:23.226Z,-2.25
2023-03-05T17:51:50.546Z,-2.25
2023-03-05T17:54:17.864Z,-2.35
2023-03-05T17:56:45.443Z,-2.30
2023-03-05T17:59:12.664Z,-2.34
2023-03-05T18:01:39.858Z,-2.43
2023-03-05T18:04:07.329Z,-2.46
2023-03-05T18:06:34.490Z,-2.48
2023-03-05T18:09:01.739Z,-2.53
2023-03-05T18:11:30.801Z,-2.56
2023-03-05T18:13:58.355Z,-2.58
2023-03-05T18:16:26.040Z,-2.63
2023-03-05T18:18:53.885Z,-2.65
2023-03-05T18:21:23.614Z,-2.70
2023-03-05T18:23:51.621Z,-2.75
2023-03-05T18:26:18.908Z,-2.78
2023-03-05T18:28:46.137Z,-2.81
2023-03-05T18:31:14.502Z,-2.84
2023-03-05T18:33:43.090Z,-2.92
2023-03-05T18:36:11.803Z,-2.92
2023-03-05T18:38:39.245Z,-2.97
2023-03-05T18:41:08.268Z,-3.01
2023-03-05T18:43:35.992Z,-3.06
2023-03-05T18:46:05.213Z,-3.09
2023-03-05T18:48:32.498Z,-3.15
2023-03-05T18:51:01.901Z,-3.17
2023-03-05T18:53:29.196Z,-3.24
2023-03-05T18:55:56.521Z,-3.24
2023-03-05T18:58:25.921Z,-3.27
2023-03-05T19:00:53.440Z,-3.28
2023-03-05T19:03:22.908Z,-3.31
2023-03-05T19:05:51.397Z,-3.35
2023-03-05T19:08:19.085Z,-3.39
2023-03-05T19:10:46.502Z,-3.47
2023-03-05T19:13:39.965Z,-3.55
2023-03-05T19:16:15.607Z,-3.66
2023-03-05T19:19:17.059Z,-3.74
2023-03-05T19:22:03.215Z,-3.84
2023-03-05T19:24:31.610Z,-3.90
2023-03-05T19:27:01.109Z,-3.93
2023-03-05T19:29:33.177Z,-3.92
2023-03-05T19:32:00.536Z,-3.93
2023-03-05T19:34:27.902Z,-3.97
2023-03-05T19:36:55.162Z,-4.04
2023-03-05T19:39:22.410Z,-4.09
2023-03-05T19:41:49.470Z,-4.15
2023-03-05T19:44:17.735Z,-4.16
2023-03-05T19:46:44.884Z,-4.19
2023-03-05T19:49:12.000Z,-4.25
2023-03-05T19:51:41.889Z,-4.32
2023-03-05T19:54:09.650Z,-4.41
2023-03-05T19:56:41.772Z,-4.43
2023-03-05T19:59:09.561Z,-4.48
2023-03-05T20:01:37.668Z,-4.51
2023-03-05T20:04:05.884Z,-4.54
2023-03-05T20:06:33.984Z,-4.61
2023-03-05T20:09:01.718Z,-4.66
2023-03-05T20:11:29.071Z,-4.67
2023-03-05T20:13:56.738Z,-4.64
2023-03-05T20:16:27.094Z,-4.62
2023-03-05T20:18:55.304Z,-4.68
2023-03-05T20:21:25.128Z,-4.80
2023-03-05T20:23:54.275Z,-4.94
2023-03-05T20:26:22.742Z,-5.03
2023-03-05T20:28:50.364Z,-5.10
2023-03-05T20:31:20.866Z,-5.16
2023-03-05T20:33:48.860Z,-5.13
2023-03-05T20:36:16.110Z,-5.15
2023-03-05T20:38:45.822Z,-5.18
2023-03-05T20:41:16.840Z,-5.21
2023-03-05T20:43:46.313Z,-5.17
2023-03-05T20:46:33.083Z,-5.12
2023-03-05T20:49:02.230Z,-5.12
2023-03-05T20:51:32.171Z,-5.12
2023-03-05T20:54:04.137Z,-5.12
2023-03-05T20:56:32.713Z,-5.09
2023-03-05T20:59:03.936Z,-5.09
2023-03-05T21:01:34.137Z,-5.04
2023-03-05T21:04:01.808Z,-5.03
2023-03-05T21:06:30.688Z,-4.99
2023-03-05T21:08:58.743Z,-4.90
2023-03-05T21:11:26.509Z,-4.80
2023-03-05T21:13:53.623Z,-4.68
2023-03-05T21:16:23.993Z,-4.57
2023-03-05T21:18:52.106Z,-4.46
2023-03-05T21:21:19.274Z,-4.34
2023-03-05T21:23:47.229Z,-4.24
2023-03-05T21:26:15.768Z,-4.10
2023-03-05T21:28:42.961Z,-3.95
2023-03-05T21:31:14.522Z,-3.86
2023-03-05T21:33:42.300Z,-3.77
2023-03-05T21:36:10.141Z,-3.71
2023-03-05T21:38:37.507Z,-3.64
2023-03-05T21:41:05.518Z,-3.57
2023-03-05T21:43:32.826Z,-3.52
2023-03-05T21:46:02.097Z,-3.47
2023-03-05T21:48:30.013Z,-3.39
2023-03-05T21:50:57.450Z,-3.36
2023-03-05T21:53:24.819Z,-3.31
2023-03-05T21:56:17.106Z,-3.27
2023-03-05T21:58:47.300Z,-3.24
2023-03-05T22:01:16.507Z,-3.16
2023-03-05T22:03:43.664Z,-3.13
2023-03-05T22:06:13.047Z,-3.06
2023-03-05T22:08:40.382Z,-3.01
2023-03-05T22:11:12.031Z,-2.98
2023-03-05T22:13:39.651Z,-2.94
2023-03-05T22:16:07.550Z,-2.94
2023-03-05T22:18:35.608Z,-2.94
2023-03-05T22:21:03.766Z,-2.86
2023-03-05T22:23:34.625Z,-2.81
2023-03-05T22:26:05.409Z,-2.78
2023-03-05T22:28:33.483Z,-2.75
2023-03-05T22:31:00.727Z,-2.72
2023-03-05T22:33:27.857Z,-2.76
2023-03-05T22:35:54.983Z,-2.69
2023-03-05T22:38:22.852Z,-2.67
2023-03-05T22:40:50.550Z,-2.63
2023-03-05T22:43:19.046Z,-2.63
2023-03-05T22:45:46.213Z,-2.57
2023-03-05T22:48:13.542Z,-2.53
2023-03-05T22:50:42.034Z,-2.47
2023-03-05T22:53:09.175Z,-2.41
2023-03-05T22:55:40.623Z,-2.45
2023-03-05T22:58:07.866Z,-2.40
2023-03-05T23:00:34.883Z,-2.40
2023-03-05T23:03:02.078Z,-2.32
2023-03-05T23:05:29.266Z,-2.27
2023-03-05T23:07:56.406Z,-2.23
2023-03-05T23:10:27.263Z,-2.17
2023-03-05T23:12:56.790Z,-2.12
2023-03-05T23:15:32.838Z,-2.08
2023-03-05T23:18:00.613Z,-2.03
2023-03-05T23:20:33.651Z,-1.96
2023-03-05T23:23:01.333Z,-1.88
2023-03-05T23:25:31.509Z,-1.85
2023-03-05T23:27:59.702Z,-1.78
2023-03-05T23:30:29.072Z,-1.84
2023-03-05T23:32:57.636Z,-1.92
2023-03-05T23:35:30.465Z,-1.86
2023-03-05T23:38:00.214Z,-1.88
2023-03-05T23:40:32.565Z,-1.87
2023-03-05T23:42:59.788Z,-1.78
2023-03-05T23:45:27.569Z,-1.68
2023-03-05T23:47:55.083Z,-1.53
2023-03-05T23:50:31.527Z,-1.41
2023-03-05T23:53:02.157Z,-1.32
2023-03-05T23:55:36.718Z,-1.15
2023-03-05T23:58:04.200Z,-1.03
